Time;durP1;ratioP1;P1;durP2;ratioP2;P2;SDS_P1;SDS_P2;PMS_P1;PMS_P2;Temp;Humidity;BMP_temperature;BMP_pressure;BME280_temperature;BME280_humidity;BME280_pressure;Samples;Min_cycle;Max_cycle;Signal;HPM_P1;HPM_P2
2022/01/09 00:01:21;;;;;;;0.93;0.80;;;;;;;6.20;77.18;97158.69;5091606;28;20056;-62
2022/01/09 00:03:48;;;;;;;1.40;1.02;;;;;;;6.20;77.26;97151.69;5091961;28;20052;-61
2022/01/09 00:06:15;;;;;;;0.80;0.80;;;;;;;6.22;77.19;97144.56;5092166;28;20078;-61
2022/01/09 00:08:44;;;;;;;0.70;0.70;;;;;;;6.23;77.01;97151.44;5091649;28;20110;-63
2022/01/09 00:11:12;;;;;;;0.80;0.80;;;;;;;6.22;77.12;97144.56;5091405;28;20051;-62
2022/01/09 00:13:38;;;;;;;0.80;0.80;;;;;;;6.22;77.01;97144.56;5090449;28;20052;-61
2022/01/09 00:16:05;;;;;;;1.08;0.80;;;;;;;6.21;76.87;97135.03;5091450;28;20549;-62
2022/01/09 00:18:32;;;;;;;1.42;0.75;;;;;;;6.22;76.72;97147.16;5091595;28;20113;-63
2022/01/09 00:21:05;;;;;;;1.95;0.98;;;;;;;6.20;76.73;97137.81;5090020;28;20530;-64
2022/01/09 00:23:33;;;;;;;0.73;0.70;;;;;;;6.19;76.83;97136.13;5090538;28;20059;-63
2022/01/09 00:26:00;;;;;;;1.92;0.90;;;;;;;6.19;76.76;97141.34;5091497;28;20116;-61
2022/01/09 00:28:27;;;;;;;1.00;0.90;;;;;;;6.17;76.66;97138.03;5091366;28;20048;-64
2022/01/09 00:30:54;;;;;;;0.60;0.60;;;;;;;6.15;76.90;97132.94;5089912;28;20039;-61
2022/01/09 00:33:21;;;;;;;0.65;0.65;;;;;;;6.15;76.81;97134.72;5091545;28;20121;-62
2022/01/09 00:35:50;;;;;;;0.60;0.60;;;;;;;6.13;76.73;97134.84;5090029;28;20101;-62
2022/01/09 00:38:17;;;;;;;0.63;0.60;;;;;;;6.13;76.64;97127.00;5090030;28;20454;-61
2022/01/09 00:40:44;;;;;;;0.73;0.73;;;;;;;6.11;76.67;97127.16;5090843;28;20048;-62
2022/01/09 00:43:11;;;;;;;1.77;0.70;;;;;;;6.10;76.70;97124.66;5091052;28;20052;-62
2022/01/09 00:45:41;;;;;;;0.55;0.55;;;;;;;6.09;76.94;97120.41;5089969;28;20059;-62
2022/01/09 00:48:08;;;;;;;1.55;0.60;;;;;;;6.08;76.77;97114.34;5089639;28;20040;-64
2022/01/09 00:50:36;;;;;;;0.70;0.70;;;;;;;6.07;76.97;97112.69;5089487;28;20048;-61
2022/01/09 00:53:04;;;;;;;2.75;0.70;;;;;;;6.06;76.71;97108.38;5089663;28;20433;-62
2022/01/09 00:55:31;;;;;;;0.70;0.70;;;;;;;6.05;76.88;97109.34;5090673;28;20546;-62
2022/01/09 00:57:57;;;;;;;1.88;0.70;;;;;;;6.04;76.79;97110.31;5090524;28;20520;-63
2022/01/09 01:00:25;;;;;;;0.60;0.60;;;;;;;6.03;77.07;97106.06;5090818;28;20056;-62
2022/01/09 01:02:51;;;;;;;0.60;0.60;;;;;;;6.02;76.83;97106.94;5089497;28;20056;-61
2022/01/09 01:05:18;;;;;;;0.47;0.47;;;;;;;6.00;76.91;97099.25;5090592;28;20052;-63
2022/01/09 01:07:45;;;;;;;1.35;0.70;;;;;;;5.96;76.17;97094.41;5090096;28;20094;-61
2022/01/09 01:10:13;;;;;;;0.50;0.50;;;;;;;5.92;76.44;97104.28;5090533;28;20090;-62
2022/01/09 01:12:41;;;;;;;1.08;0.70;;;;;;;5.89;76.03;97093.22;5089464;28;20063;-62
2022/01/09 01:15:08;;;;;;;0.50;0.50;;;;;;;5.85;76.79;97103.09;5089443;28;20411;-61
2022/01/09 01:17:36;;;;;;;0.60;0.50;;;;;;;5.83;76.67;97094.59;5090398;28;20720;-61
2022/01/09 01:20:04;;;;;;;0.73;0.57;;;;;;;5.80;76.59;97097.44;5089293;28;20070;-61
2022/01/09 01:22:31;;;;;;;0.88;0.45;;;;;;;5.77;76.67;97095.91;5089452;28;20043;-63
2022/01/09 01:24:59;;;;;;;0.60;0.60;;;;;;;5.74;76.72;97101.34;5090483;28;20051;-61
2022/01/09 01:27:26;;;;;;;0.70;0.70;;;;;;;5.71;76.68;97091.16;5090721;28;20052;-60
2022/01/09 01:29:53;;;;;;;0.50;0.50;;;;;;;5.68;76.42;97096.63;5090277;28;20080;-63
2022/01/09 01:32:22;;;;;;;0.68;0.68;;;;;;;5.65;76.92;97099.47;5090101;28;20052;-61
2022/01/09 01:34:49;;;;;;;0.52;0.52;;;;;;;5.64;77.00;97097.84;5090044;28;20484;-62
2022/01/09 01:37:16;;;;;;;0.50;0.50;;;;;;;5.61;76.65;97098.91;5088904;28;20105;-62
2022/01/09 01:39:42;;;;;;;0.50;0.50;;;;;;;5.58;76.60;97107.78;5090420;28;20688;-62
2022/01/09 01:42:09;;;;;;;0.50;0.50;;;;;;;5.54;76.65;97102.94;5090138;28;20048;-62
2022/01/09 01:44:46;;;;;;;0.70;0.60;;;;;;;5.48;75.85;97101.66;5090000;28;20048;-61
2022/01/09 01:47:18;;;;;;;0.50;0.50;;;;;;;5.43;75.51;97098.59;5088968;28;20048;-62
2022/01/09 01:49:46;;;;;;;;;;;;;;;5.39;74.53;97113.66;5090384;28;20098;-62
2022/01/09 01:52:15;;;;;;;0.50;0.50;;;;;;;5.34;75.71;97108.78;5090168;28;19927;-63
2022/01/09 01:54:43;;;;;;;0.68;0.65;;;;;;;5.28;76.12;97104.06;5088783;28;20047;-62
2022/01/09 01:57:12;;;;;;;1.08;0.50;;;;;;;5.22;76.01;97099.31;5088811;28;20105;-63
2022/01/09 01:59:38;;;;;;;0.43;0.43;;;;;;;5.15;76.51;97106.78;5088493;28;20040;-61
2022/01/09 02:02:05;;;;;;;0.47;0.47;;;;;;;5.10;77.10;97101.09;5089981;28;20101;-61
2022/01/09 02:04:32;;;;;;;0.75;0.50;;;;;;;5.06;76.85;97103.13;5090058;28;20476;-61
2022/01/09 02:06:59;;;;;;;0.60;0.60;;;;;;;5.02;76.88;97100.84;5090233;28;20109;-61
2022/01/09 02:09:26;;;;;;;1.05;0.70;;;;;;;4.98;77.05;97100.28;5088693;28;20053;-62
2022/01/09 02:11:52;;;;;;;1.02;0.50;;;;;;;4.95;76.98;97101.34;5089756;28;20381;-61
2022/01/09 02:14:19;;;;;;;0.50;0.50;;;;;;;4.91;77.19;97092.09;5089926;28;20079;-61
2022/01/09 02:16:48;;;;;;;0.70;0.70;;;;;;;4.90;77.42;97097.44;5089847;28;20044;-62
2022/01/09 02:19:16;;;;;;;0.57;0.57;;;;;;;4.88;77.33;97105.38;5090689;28;20100;-60
2022/01/09 02:21:47;;;;;;;0.55;0.55;;;;;;;4.86;77.34;97107.25;5094036;28;20075;-61
2022/01/09 02:24:14;;;;;;;0.63;0.63;;;;;;;4.83;77.09;97110.91;5092647;28;20093;-61
2022/01/09 02:26:41;;;;;;;0.50;0.50;;;;;;;4.79;76.56;97112.09;5093861;28;20079;-61
2022/01/09 02:29:07;;;;;;;0.70;0.70;;;;;;;4.74;76.48;97108.19;5093258;28;20052;-62
2022/01/09 02:31:35;;;;;;;0.50;0.50;;;;;;;4.71;76.71;97113.63;5093415;28;20048;-62
2022/01/09 02:34:02;;;;;;;0.90;0.60;;;;;;;4.65;76.71;97118.38;5092504;28;20109;-61
2022/01/09 02:36:28;;;;;;;0.90;0.63;;;;;;;4.60;76.74;97117.88;5093395;28;20101;-61
2022/01/09 02:38:55;;;;;;;0.65;0.65;;;;;;;4.56;76.79;97117.28;5093397;28;20109;-61
2022/01/09 02:41:21;;;;;;;0.80;0.80;;;;;;;4.52;77.14;97125.44;5093283;28;20048;-60
2022/01/09 02:43:48;;;;;;;0.70;0.70;;;;;;;4.47;77.32;97117.13;5093562;28;20098;-63
2022/01/09 02:46:38;;;;;;;0.77;0.77;;;;;;;4.44;77.33;97118.19;5093204;28;20060;-62
2022/01/09 02:49:06;;;;;;;0.80;0.80;;;;;;;4.42;77.71;97120.09;5093263;28;20110;-62
2022/01/09 02:51:36;;;;;;;1.40;0.80;;;;;;;4.39;77.73;97130.72;5093205;28;20591;-61
2022/01/09 02:56:48;;;;;;;0.90;0.90;;;;;;;4.40;78.17;97130.63;5093310;28;20471;-63
2022/01/09 02:59:15;;;;;;;0.90;0.90;;;;;;;4.40;78.63;97129.78;5092928;28;20557;-61
2022/01/09 03:01:41;;;;;;;0.90;0.90;;;;;;;4.40;78.73;97130.63;5093006;28;20110;-61
2022/01/09 03:04:08;;;;;;;0.95;0.90;;;;;;;4.41;78.69;97134.06;5093074;28;20052;-61
2022/01/09 03:06:35;;;;;;;1.75;1.20;;;;;;;4.44;78.87;97141.63;5092718;28;20051;-62
2022/01/09 03:09:05;;;;;;;1.30;1.20;;;;;;;4.46;78.83;97141.53;5092688;28;20095;-63
2022/01/09 03:11:32;;;;;;;1.80;1.70;;;;;;;4.47;78.82;97140.56;5091502;28;20572;-63
2022/01/09 03:13:58;;;;;;;3.58;1.60;;;;;;;4.47;78.98;97146.63;5092687;28;20044;-60
2022/01/09 03:16:25;;;;;;;1.70;1.60;;;;;;;4.48;78.76;97148.28;5092883;28;20081;-62
2022/01/09 03:18:51;;;;;;;1.60;1.50;;;;;;;4.50;79.11;97154.22;5092711;28;20105;-61
2022/01/09 03:21:18;;;;;;;2.08;1.88;;;;;;;4.53;79.30;97155.75;5092264;28;20105;-62
2022/01/09 03:23:45;;;;;;;1.77;1.67;;;;;;;4.55;79.21;97146.03;5092679;28;20478;-64
2022/01/09 03:26:11;;;;;;;1.83;1.73;;;;;;;4.57;78.90;97152.78;5092520;28;20549;-62
2022/01/09 03:28:38;;;;;;;1.70;1.60;;;;;;;4.60;78.98;97148.31;5092562;28;20052;-62
2022/01/09 03:31:04;;;;;;;2.05;1.85;;;;;;;4.60;78.85;97167.38;5092405;28;20093;-63
2022/01/09 03:33:31;;;;;;;2.20;1.95;;;;;;;4.61;78.50;97157.78;5091077;28;20093;-61
2022/01/09 03:35:58;;;;;;;2.00;1.90;;;;;;;4.62;78.49;97159.44;5092276;28;20821;-62
2022/01/09 03:38:24;;;;;;;2.00;1.90;;;;;;;4.62;78.75;97146.41;5092952;28;20385;-61
2022/01/09 03:40:51;;;;;;;1.95;1.85;;;;;;;4.62;78.59;97141.19;5092204;28;20074;-62
2022/01/09 03:43:17;;;;;;;1.80;1.70;;;;;;;4.61;78.45;97152.56;5092428;28;20519;-64
2022/01/09 03:45:44;;;;;;;2.17;2.00;;;;;;;4.62;78.32;97147.25;5092150;28;20044;-62
2022/01/09 03:48:11;;;;;;;2.30;2.10;;;;;;;4.61;78.04;97150.81;5092013;28;20484;-62
2022/01/09 03:50:37;;;;;;;2.38;1.95;;;;;;;4.60;78.04;97156.94;5091749;28;20457;-61
2022/01/09 03:53:04;;;;;;;2.20;1.95;;;;;;;4.57;77.89;97165.81;5091988;28;20052;-64
2022/01/09 03:55:31;;;;;;;2.20;2.00;;;;;;;4.55;78.03;97166.88;5090920;28;20052;-61
2022/01/09 03:57:57;;;;;;;2.63;2.42;;;;;;;4.53;77.95;97166.19;5091714;28;20374;-64
2022/01/09 04:00:25;;;;;;;2.78;2.30;;;;;;;4.51;78.11;97165.44;5091633;28;20097;-65
2022/01/09 04:02:53;;;;;;;2.47;2.28;;;;;;;4.49;77.85;97168.16;5091933;28;20095;-61
2022/01/09 04:05:20;;;;;;;2.13;2.03;;;;;;;4.48;78.10;97173.50;5090470;28;20407;-62
2022/01/09 04:07:47;;;;;;;2.63;2.42;;;;;;;4.47;78.31;97180.47;5091608;28;20052;-61
2022/01/09 04:10:30;;;;;;;2.42;2.22;;;;;;;4.48;78.46;97181.31;5091625;28;20080;-61
2022/01/09 04:13:02;;;;;;;2.83;2.63;;;;;;;4.48;78.73;97189.97;5091939;28;20048;-62
2022/01/09 04:15:29;;;;;;;2.30;2.10;;;;;;;4.50;78.98;97187.25;5090675;28;20048;-62
2022/01/09 04:17:57;;;;;;;3.13;2.92;;;;;;;4.53;78.98;97187.84;5091654;28;20047;-62
2022/01/09 04:20:29;;;;;;;3.83;3.28;;;;;;;4.54;78.94;97199.94;5091644;28;20043;-62
2022/01/09 04:22:56;;;;;;;3.70;3.40;;;;;;;4.57;79.14;97196.28;5090485;28;20146;-64
2022/01/09 04:25:23;;;;;;;3.78;3.45;;;;;;;4.62;79.38;97201.13;5090461;28;20047;-62
2022/01/09 04:27:51;;;;;;;4.65;3.72;;;;;;;4.65;79.38;97208.72;5091394;28;20842;-61
2022/01/09 04:30:19;;;;;;;4.13;3.72;;;;;;;4.70;79.47;97209.22;5089906;28;20051;-62
2022/01/09 04:32:45;;;;;;;4.90;4.43;;;;;;;4.73;79.49;97209.00;5091144;28;20480;-64
2022/01/09 04:35:13;;;;;;;5.15;4.65;;;;;;;4.77;79.65;97220.84;5091315;28;20066;-62
2022/01/09 04:37:39;;;;;;;5.85;5.22;;;;;;;4.81;79.75;97224.91;5091354;28;20051;-62
2022/01/09 04:40:09;;;;;;;5.50;5.00;;;;;;;4.88;79.76;97229.63;5091286;28;20091;-62
2022/01/09 04:42:48;;;;;;;6.43;5.82;;;;;;;4.92;79.79;97228.47;5089586;28;20121;-62
2022/01/09 04:45:17;;;;;;;6.28;5.63;;;;;;;4.98;79.97;97235.84;5091477;28;20443;-63
2022/01/09 04:47:47;;;;;;;6.78;6.07;;;;;;;5.03;80.05;97238.09;5090010;28;20047;-62
2022/01/09 04:50:20;;;;;;;6.57;5.97;;;;;;;5.09;80.08;97248.88;5089711;28;20087;-62
2022/01/09 04:52:51;;;;;;;7.28;6.50;;;;;;;5.17;79.89;97239.66;5089695;28;20504;-64
2022/01/09 04:55:18;;;;;;;8.65;7.85;;;;;;;5.22;79.96;97243.59;5090758;28;20495;-64
2022/01/09 04:57:44;;;;;;;9.57;7.10;;;;;;;5.29;79.80;97248.34;5089464;28;20051;-62
2022/01/09 05:00:12;;;;;;;8.10;7.05;;;;;;;5.34;79.91;97254.88;5089712;28;20051;-65
2022/01/09 05:02:38;;;;;;;8.55;7.53;;;;;;;5.40;79.84;97263.16;5089741;28;20044;-63
2022/01/09 05:05:09;;;;;;;12.20;8.20;;;;;;;5.45;79.94;97274.06;5090726;28;20139;-63
2022/01/09 05:07:36;;;;;;;8.77;7.88;;;;;;;5.50;79.50;97279.81;5090641;28;20044;-63
2022/01/09 05:10:04;;;;;;;10.30;8.43;;;;;;;5.56;79.68;97288.91;5089657;28;20055;-64
2022/01/09 05:12:31;;;;;;;12.50;8.82;;;;;;;5.60;79.60;97290.34;5090816;28;20109;-62
2022/01/09 05:14:58;;;;;;;9.75;8.55;;;;;;;5.65;79.74;97300.44;5090911;28;20109;-62
2022/01/09 05:17:24;;;;;;;10.90;9.20;;;;;;;5.68;79.79;97305.44;5090818;28;20048;-62
2022/01/09 05:19:52;;;;;;;13.80;8.63;;;;;;;5.73;79.64;97308.53;5089257;28;20060;-62
2022/01/09 05:22:19;;;;;;;11.40;7.82;;;;;;;5.77;79.80;97317.78;5090399;28;20055;-63
2022/01/09 05:24:46;;;;;;;8.32;6.75;;;;;;;5.83;79.70;97321.72;5090662;28;20537;-64
2022/01/09 05:27:12;;;;;;;10.75;6.50;;;;;;;5.86;80.13;97321.44;5090597;28;20052;-62
2022/01/09 05:29:39;;;;;;;7.35;5.85;;;;;;;5.91;79.92;97321.09;5090567;28;20462;-61
2022/01/09 05:32:06;;;;;;;12.40;6.57;;;;;;;5.94;80.24;97329.53;5090546;28;20044;-64
2022/01/09 05:34:32;;;;;;;10.45;6.43;;;;;;;5.99;80.06;97334.41;5089063;28;20044;-63
2022/01/09 05:36:59;;;;;;;9.50;6.43;;;;;;;6.05;80.26;97348.81;5090198;28;20097;-61
2022/01/09 05:39:25;;;;;;;8.75;6.47;;;;;;;6.08;79.97;97344.16;5089934;28;20056;-64
2022/01/09 05:41:52;;;;;;;13.88;8.30;;;;;;;6.15;80.04;97354.13;5090350;28;20477;-65
2022/01/09 05:44:19;;;;;;;13.60;8.85;;;;;;;6.19;80.33;97360.78;5090637;28;20105;-62
2022/01/09 05:46:46;;;;;;;16.38;9.68;;;;;;;6.23;80.33;97363.03;5089296;28;20500;-64
2022/01/09 05:49:13;;;;;;;15.65;9.70;;;;;;;6.28;80.08;97367.88;5090019;28;20055;-63
2022/01/09 05:51:40;;;;;;;17.70;9.30;;;;;;;6.33;79.92;97378.00;5090144;28;20535;-62
2022/01/09 05:54:06;;;;;;;17.38;8.25;;;;;;;6.37;80.10;97372.41;5091263;28;20553;-64
2022/01/09 05:56:33;;;;;;;18.08;7.47;;;;;;;6.41;80.35;97378.22;5094411;28;20047;-63
2022/01/09 05:59:00;;;;;;;21.42;7.53;;;;;;;6.47;80.53;97382.94;5094743;28;20056;-62
2022/01/09 06:01:26;;;;;;;25.17;6.85;;;;;;;6.52;80.42;97387.84;5093981;28;20458;-66
2022/01/09 06:03:53;;;;;;;27.63;5.80;;;;;;;6.57;80.98;97390.91;5094180;28;20098;-62
2022/01/09 06:06:20;;;;;;;26.98;5.10;;;;;;;6.62;80.82;97409.66;5094864;28;20044;-62
2022/01/09 06:08:47;;;;;;;22.85;5.97;;;;;;;6.68;80.90;97416.19;5094174;28;20413;-63
2022/01/09 06:11:13;;;;;;;22.90;4.85;;;;;;;6.74;80.99;97412.28;5093971;28;20040;-62
2022/01/09 06:13:40;;;;;;;20.40;5.38;;;;;;;6.78;80.82;97427.59;5094094;28;20052;-62
2022/01/09 06:16:07;;;;;;;28.42;6.07;;;;;;;6.84;80.63;97438.53;5094099;28;20050;-65
2022/01/09 06:18:33;;;;;;;27.67;4.63;;;;;;;6.89;80.83;97434.56;5093810;28;20052;-62
2022/01/09 06:21:00;;;;;;;24.02;4.25;;;;;;;6.93;80.58;97436.97;5093754;28;20048;-61
2022/01/09 06:23:27;;;;;;;25.50;5.07;;;;;;;6.98;80.59;97445.25;5093911;28;20475;-64
2022/01/09 06:25:54;;;;;;;21.73;3.83;;;;;;;7.01;80.33;97452.88;5093788;28;20052;-65
2022/01/09 06:28:21;;;;;;;19.92;4.10;;;;;;;7.03;79.96;97448.38;5092495;28;20044;-62
2022/01/09 06:30:47;;;;;;;24.25;4.15;;;;;;;7.08;80.27;97468.91;5093389;28;20052;-62
2022/01/09 06:33:14;;;;;;;25.55;3.95;;;;;;;7.10;80.05;97460.00;5093549;28;20104;-63
2022/01/09 06:35:41;;;;;;;28.45;4.03;;;;;;;7.13;79.98;97475.44;5092331;28;20044;-62
2022/01/09 06:38:08;;;;;;;21.85;3.75;;;;;;;7.14;80.11;97479.72;5092424;28;20058;-63
2022/01/09 06:40:36;;;;;;;20.90;3.85;;;;;;;7.16;80.25;97488.28;5092318;28;20044;-67
2022/01/09 06:43:03;;;;;;;20.50;3.95;;;;;;;7.17;79.53;97484.72;5093375;28;20055;-63
2022/01/09 06:45:30;;;;;;;28.23;3.85;;;;;;;7.21;79.56;97501.00;5093653;28;20052;-62
2022/01/09 06:47:58;;;;;;;18.00;3.55;;;;;;;7.23;79.75;97506.09;5092269;28;20454;-62
2022/01/09 06:50:26;;;;;;;14.88;3.20;;;;;;;7.23;79.78;97517.41;5093170;28;20134;-62
2022/01/09 06:52:53;;;;;;;23.00;3.88;;;;;;;7.25;79.63;97519.91;5092145;28;20109;-63
2022/01/09 06:55:20;;;;;;;22.30;4.20;;;;;;;7.25;79.54;97519.91;5093244;28;20048;-65
2022/01/09 06:57:46;;;;;;;24.05;3.75;;;;;;;7.26;79.31;97529.41;5093041;28;20109;-62
2022/01/09 07:00:14;;;;;;;16.08;3.50;;;;;;;7.26;79.27;97534.66;5091723;28;20082;-62
2022/01/09 07:02:41;;;;;;;18.80;3.33;;;;;;;7.28;79.46;97540.59;5093092;28;20048;-62
2022/01/09 07:05:08;;;;;;;22.52;3.75;;;;;;;7.28;79.62;97551.06;5092555;28;20056;-64
2022/01/09 07:07:35;;;;;;;21.05;3.67;;;;;;;7.29;79.42;97553.56;5091943;28;20093;-63
2022/01/09 07:10:02;;;;;;;25.92;4.20;;;;;;;7.29;79.16;97555.34;5092632;28;20044;-62
2022/01/09 07:12:29;;;;;;;22.10;3.95;;;;;;;7.29;79.38;97566.63;5091679;28;20048;-61
2022/01/09 07:14:55;;;;;;;21.00;3.53;;;;;;;7.30;79.33;97572.72;5091654;28;20105;-62
2022/01/09 07:17:22;;;;;;;17.40;3.00;;;;;;;7.30;79.33;97573.53;5092940;28;20093;-64
2022/01/09 07:19:49;;;;;;;23.88;3.55;;;;;;;7.32;79.07;97583.06;5092654;28;20127;-61
2022/01/09 07:22:15;;;;;;;17.38;3.25;;;;;;;7.31;79.16;97595.31;5092838;28;20056;-63
2022/01/09 07:24:42;;;;;;;20.38;3.03;;;;;;;7.31;79.11;97595.31;5092258;28;20094;-62
2022/01/09 07:27:09;;;;;;;16.25;3.10;;;;;;;7.32;78.78;97602.19;5092525;28;20052;-62
2022/01/09 07:29:36;;;;;;;11.18;2.47;;;;;;;7.31;78.73;97608.38;5092205;28;20052;-64
2022/01/09 07:32:03;;;;;;;12.98;2.83;;;;;;;7.28;78.77;97612.09;5092958;28;20056;-64
2022/01/09 07:34:29;;;;;;;14.20;2.42;;;;;;;7.28;78.53;97624.31;5092639;28;20044;-65
2022/01/09 07:36:56;;;;;;;10.35;2.15;;;;;;;7.26;78.63;97618.41;5092371;28;20044;-62
2022/01/09 07:39:22;;;;;;;8.32;1.80;;;;;;;7.25;78.65;97622.78;5092089;28;20048;-64
2022/01/09 07:41:50;;;;;;;14.43;2.05;;;;;;;7.24;78.22;97628.13;5091657;28;20077;-62
2022/01/09 07:44:16;;;;;;;13.70;1.90;;;;;;;7.23;78.42;97635.16;5092520;28;20121;-61
2022/01/09 07:46:43;;;;;;;12.73;1.83;;;;;;;7.22;78.51;97643.13;5091956;28;20545;-64
2022/01/09 07:49:09;;;;;;;19.10;2.55;;;;;;;7.20;78.10;97658.94;5091458;28;20480;-62
2022/01/09 07:51:36;;;;;;;11.18;2.08;;;;;;;7.20;78.36;97660.72;5090821;28;20516;-63
2022/01/09 07:54:17;;;;;;;14.45;1.90;;;;;;;7.19;78.30;97664.28;5092458;28;20052;-61
2022/01/09 07:56:43;;;;;;;9.70;2.15;;;;;;;7.17;78.45;97667.88;5091958;28;20048;-63
2022/01/09 07:59:10;;;;;;;9.88;2.50;;;;;;;7.17;78.02;97673.09;5092076;28;20048;-61
2022/01/09 08:01:36;;;;;;;11.65;2.40;;;;;;;7.15;78.06;97682.03;5092022;28;20098;-63
2022/01/09 08:04:03;;;;;;;16.77;2.30;;;;;;;7.15;78.21;97682.84;5091965;28;20052;-62
2022/01/09 08:06:30;;;;;;;8.68;2.08;;;;;;;7.13;78.66;97689.97;5091842;28;20048;-62
2022/01/09 08:08:56;;;;;;;12.40;2.22;;;;;;;7.12;78.27;97698.78;5091835;28;20044;-63
2022/01/09 08:11:23;;;;;;;11.20;2.10;;;;;;;7.11;78.66;97704.13;5091536;28;20062;-61
2022/01/09 08:13:49;;;;;;;12.93;2.30;;;;;;;7.11;78.62;97712.78;5091802;28;20484;-63
2022/01/09 08:16:16;;;;;;;11.23;2.70;;;;;;;7.12;78.29;97708.41;5091184;28;20048;-63
2022/01/09 08:18:43;;;;;;;9.98;2.40;;;;;;;7.11;78.32;97711.97;5091543;28;20188;-62
2022/01/09 08:21:09;;;;;;;14.30;2.10;;;;;;;7.10;78.67;97710.31;5091206;28;20048;-65
2022/01/09 08:23:36;;;;;;;14.65;2.17;;;;;;;7.11;78.43;97722.44;5090297;28;20055;-62
2022/01/09 08:26:03;;;;;;;13.40;2.30;;;;;;;7.11;78.57;97728.50;5091624;28;20048;-61
2022/01/09 08:28:30;;;;;;;11.90;1.90;;;;;;;7.12;78.60;97747.66;5091273;28;20047;-64
2022/01/09 08:30:57;;;;;;;11.35;2.10;;;;;;;7.11;78.53;97740.75;5090890;28;20507;-61
2022/01/09 08:33:25;;;;;;;11.15;2.63;;;;;;;7.12;78.39;97751.13;5091272;28;20098;-63
2022/01/09 08:35:52;;;;;;;10.30;2.70;;;;;;;7.12;78.73;97760.75;5089852;28;20048;-62
2022/01/09 08:38:20;;;;;;;13.40;2.70;;;;;;;7.12;78.42;97748.50;5091258;28;20060;-63
2022/01/09 08:40:47;;;;;;;9.90;2.20;;;;;;;7.12;78.37;97761.59;5089798;28;20403;-61
2022/01/09 08:43:14;;;;;;;7.57;2.05;;;;;;;7.13;78.43;97767.63;5091467;28;20619;-62
2022/01/09 08:45:40;;;;;;;9.02;2.58;;;;;;;7.12;78.36;97769.44;5089984;28;20415;-63
2022/01/09 08:48:07;;;;;;;17.10;2.83;;;;;;;7.12;78.48;97769.44;5091057;28;20121;-62
2022/01/09 08:50:34;;;;;;;13.60;2.20;;;;;;;7.13;78.27;97783.31;5090401;28;20491;-62
2022/01/09 08:53:00;;;;;;;11.77;2.13;;;;;;;7.13;78.46;97780.72;5091215;28;20055;-63
2022/01/09 08:55:27;;;;;;;12.52;2.70;;;;;;;7.14;78.78;97785.03;5090907;28;20093;-62
2022/01/09 08:57:57;;;;;;;13.07;2.38;;;;;;;7.15;78.33;97786.69;5090057;28;20047;-62
2022/01/09 09:00:25;;;;;;;10.60;2.42;;;;;;;7.15;78.40;97799.75;5090783;28;20044;-62
2022/01/09 09:02:51;;;;;;;11.25;2.65;;;;;;;7.16;78.23;97804.03;5089410;28;20459;-65
2022/01/09 09:05:20;;;;;;;11.18;2.10;;;;;;;7.17;78.42;97808.31;5090601;28;20078;-62
2022/01/09 09:07:47;;;;;;;11.80;2.60;;;;;;;7.17;78.08;97810.94;5090956;28;20067;-64
2022/01/09 09:10:14;;;;;;;17.95;2.90;;;;;;;7.16;78.06;97817.97;5089025;28;20451;-62
2022/01/09 09:12:41;;;;;;;14.82;3.05;;;;;;;7.17;78.39;97817.00;5090599;28;20135;-62
2022/01/09 09:15:08;;;;;;;11.48;2.15;;;;;;;7.18;78.71;97823.09;5090647;28;20063;-64
2022/01/09 09:17:34;;;;;;;14.63;2.65;;;;;;;7.19;78.74;97830.00;5089464;28;20048;-62
2022/01/09 09:20:02;;;;;;;15.43;3.50;;;;;;;7.19;78.50;97837.84;5090524;28;20390;-64
2022/01/09 09:22:29;;;;;;;17.88;3.47;;;;;;;7.20;78.16;97849.97;5089340;28;20056;-63
2022/01/09 09:24:56;;;;;;;18.83;3.75;;;;;;;7.21;78.43;97848.19;5090610;28;20047;-63
2022/01/09 09:27:29;;;;;;;14.13;3.38;;;;;;;7.22;78.23;97860.31;5090541;28;20048;-61
2022/01/09 09:30:02;;;;;;;15.75;3.53;;;;;;;7.22;77.98;97862.94;5090138;28;20052;-62
2022/01/09 09:32:30;;;;;;;11.77;3.50;;;;;;;7.23;78.02;97867.22;5090283;28;20081;-62
2022/01/09 09:34:57;;;;;;;15.88;3.30;;;;;;;7.23;78.69;97868.06;5090442;28;20044;-62
2022/01/09 09:37:26;;;;;;;17.25;3.10;;;;;;;7.24;78.48;97874.13;5089072;28;20063;-62
2022/01/09 09:39:52;;;;;;;16.40;3.28;;;;;;;7.24;78.32;97882.81;5088726;28;20085;-63
2022/01/09 09:42:20;;;;;;;16.92;3.20;;;;;;;7.25;78.59;97883.66;5089573;28;20105;-62
2022/01/09 09:44:47;;;;;;;24.40;3.15;;;;;;;7.25;78.51;97891.50;5090261;28;20048;-62
2022/01/09 09:47:17;;;;;;;14.07;3.30;;;;;;;7.25;78.02;97897.56;5089245;28;20055;-65
2022/01/09 09:49:47;;;;;;;13.90;2.70;;;;;;;7.26;78.09;97895.78;5090095;28;20732;-63
2022/01/09 09:52:18;;;;;;;16.88;2.88;;;;;;;7.27;78.52;97900.06;5088876;28;20052;-62
2022/01/09 09:54:50;;;;;;;10.55;2.83;;;;;;;7.25;77.92;97902.78;5090296;28;20079;-62
2022/01/09 09:57:17;;;;;;;15.10;3.38;;;;;;;7.27;78.29;97910.53;5089029;28;20101;-62
2022/01/09 09:59:44;;;;;;;13.07;2.88;;;;;;;7.27;78.48;97924.47;5089882;28;20060;-64
2022/01/09 10:02:16;;;;;;;19.15;3.47;;;;;;;7.27;78.29;97926.25;5088886;28;20123;-62
2022/01/09 10:05:02;;;;;;;15.82;3.25;;;;;;;7.24;77.69;97921.22;5088859;28;20075;-62
2022/01/09 10:07:29;;;;;;;14.38;2.72;;;;;;;7.29;78.57;97926.97;5090044;28;20451;-62
2022/01/09 10:10:01;;;;;;;16.08;3.63;;;;;;;7.27;77.87;97927.09;5089484;28;20052;-65
2022/01/09 10:12:30;;;;;;;13.13;2.60;;;;;;;7.29;78.03;97940.06;5090238;28;20044;-61
2022/01/09 10:14:59;;;;;;;9.10;2.25;;;;;;;7.29;78.12;97938.25;5089567;28;20274;-63
2022/01/09 10:17:27;;;;;;;17.70;3.05;;;;;;;7.30;78.36;97936.50;5090168;28;20059;-62
2022/01/09 10:20:03;;;;;;;35.45;3.05;;;;;;;7.29;77.67;97945.28;5090945;28;20479;-61
2022/01/09 10:22:53;;;;;;;17.63;3.25;;;;;;;7.26;77.22;97943.72;5089413;28;20496;-63
2022/01/09 10:25:30;;;;;;;14.45;3.25;;;;;;;7.30;77.63;97954.81;5088989;28;20048;-62
2022/01/09 10:28:04;;;;;;;9.00;2.40;;;;;;;7.30;77.90;97955.63;5089720;28;20484;-62
2022/01/09 10:30:40;;;;;;;14.05;3.17;;;;;;;7.28;77.29;97956.69;5088409;28;20052;-63
2022/01/09 10:33:14;;;;;;;15.82;3.28;;;;;;;7.30;77.97;97958.25;5088725;28;20052;-65
2022/01/09 10:35:44;;;;;;;11.23;2.75;;;;;;;7.32;78.29;97966.00;5089842;28;20059;-63
2022/01/09 10:38:22;;;;;;;17.48;3.45;;;;;;;7.33;78.04;97962.41;5090098;28;20080;-63
2022/01/09 10:40:57;;;;;;;14.95;3.30;;;;;;;7.35;78.12;97976.25;5091376;28;20135;-63
2022/01/09 10:43:37;;;;;;;12.27;2.88;;;;;;;7.35;77.30;97976.25;5093450;28;20052;-62
2022/01/09 10:46:04;;;;;;;16.70;3.58;;;;;;;7.39;78.25;97989.94;5092181;28;20048;-63
2022/01/09 10:48:34;;;;;;;12.65;3.75;;;;;;;7.38;77.67;97989.13;5093372;28;20044;-62
2022/01/09 10:51:05;;;;;;;11.38;2.78;;;;;;;7.39;77.99;97993.41;5091892;28;20090;-64
2022/01/09 10:53:35;;;;;;;13.77;3.40;;;;;;;7.38;77.76;98002.22;5091755;28;20055;-64
2022/01/09 10:56:04;;;;;;;15.27;3.55;;;;;;;7.40;78.13;98008.16;5092408;28;20056;-62
2022/01/09 10:58:36;;;;;;;14.38;3.35;;;;;;;7.38;77.45;98015.28;5093117;28;20060;-62
2022/01/09 11:01:14;;;;;;;8.52;3.22;;;;;;;7.37;77.20;98010.16;5092907;28;20105;-65
2022/01/09 11:03:46;;;;;;;15.35;2.92;;;;;;;7.40;78.15;98016.00;5091837;28;20055;-63
2022/01/09 11:06:13;;;;;;;18.23;3.15;;;;;;;7.41;78.51;98015.06;5091354;28;20059;-66
2022/01/09 11:08:41;;;;;;;13.18;2.47;;;;;;;7.41;78.49;98012.44;5093322;28;20047;-62
2022/01/09 11:11:16;;;;;;;9.32;2.67;;;;;;;7.44;78.50;98016.63;5091417;28;20044;-64
2022/01/09 11:13:47;;;;;;;10.30;2.90;;;;;;;7.45;78.01;98023.53;5092982;28;20047;-63
2022/01/09 11:16:34;;;;;;;11.23;2.83;;;;;;;7.47;78.19;98026.06;5091640;28;20482;-63
2022/01/09 11:19:04;;;;;;;11.63;3.03;;;;;;;7.47;77.92;98028.66;5092792;28;20044;-62
2022/01/09 11:21:32;;;;;;;7.70;2.58;;;;;;;7.48;78.03;98040.81;5091351;28;20040;-61
2022/01/09 11:24:30;;;;;;;10.15;3.20;;;;;;;7.45;76.83;98039.25;5091892;28;20747;-62
2022/01/09 11:27:19;;;;;;;9.13;3.03;;;;;;;7.46;76.56;98050.53;5091794;28;20048;-63
2022/01/09 11:30:03;;;;;;;16.42;3.15;;;;;;;7.48;77.66;98054.72;5091348;28;20431;-62
2022/01/09 11:32:55;;;;;;;8.35;2.63;;;;;;;7.47;77.17;98055.66;5090916;28;20055;-63
2022/01/09 11:35:33;;;;;;;18.00;3.30;;;;;;;7.46;76.92;98061.00;5091928;28;20113;-62
2022/01/09 11:38:18;;;;;;;7.05;2.70;;;;;;;7.45;76.57;98067.19;5091007;28;20081;-65
2022/01/09 11:40:45;;;;;;;15.52;3.20;;;;;;;7.47;78.10;98068.75;5092004;28;20577;-63
2022/01/09 11:43:16;;;;;;;14.15;3.40;;;;;;;7.45;77.59;98067.19;5092049;28;20052;-62
2022/01/09 11:45:45;;;;;;;12.13;3.03;;;;;;;7.46;78.20;98074.09;5091990;28;20048;-62
2022/01/09 11:48:13;;;;;;;8.85;2.90;;;;;;;7.48;78.11;98075.66;5092145;28;20048;-62